Terminal Aerodrome Forecast
Issued by NWS North Platte, NE

Home | Current Version | Previous Version | Text Only | Print | Product List | Glossary Off
Versions: 1 2 3 4 5 6 7 8 9 10 11 12 13 14 15 16 17 18 19 20 21 22 23 24 25 26

000
FTUS43 KLBF 251541 AAD
TAFVTN
TAF AMD
KVTN 251541Z 2516/2612 07004KT P6SM FEW250
     FM251800 17008KT P6SM SCT250
     FM260300 14008KT P6SM SCT250
     FM260900 15005KT P6SM OVC250=

USA.gov is the U.S. government's official web portal to all federal, state and local government web resources and services.